Time;durP1;ratioP1;P1;durP2;ratioP2;P2;SDS_P1;SDS_P2;PMS_P1;PMS_P2;Temp;Humidity;BMP_temperature;BMP_pressure;BME280_temperature;BME280_humidity;BME280_pressure;Samples;Min_cycle;Max_cycle;Signal;HPM_P1;HPM_P2
2022/12/19 00:01:59;;;;;;;24.37;12.97;;;4.30;99.90;;;;;;5099106;28;20450;-84
2022/12/19 00:07:33;;;;;;;25.00;12.43;;;4.30;99.90;;;;;;5098596;28;20508;-84
2022/12/19 00:10:15;;;;;;;20.07;11.53;;;4.40;99.90;;;;;;5099467;28;20450;-84
2022/12/19 00:12:50;;;;;;;27.17;18.50;;;4.40;99.90;;;;;;5097346;28;20985;-84
2022/12/19 00:15:43;;;;;;;27.47;14.30;;;4.50;99.90;;;;;;5081736;28;20229;-84
2022/12/19 00:23:49;;;;;;;23.73;12.33;;;4.60;99.90;;;;;;5116783;28;20455;-84
2022/12/19 00:26:26;;;;;;;20.37;12.33;;;4.60;99.90;;;;;;5101078;28;20468;-85
2022/12/19 00:29:14;;;;;;;22.00;12.80;;;4.70;99.90;;;;;;5112545;28;20470;-84
2022/12/19 00:31:52;;;;;;;22.77;12.60;;;4.80;99.90;;;;;;5097987;28;20201;-82
2022/12/19 00:37:40;;;;;;;21.47;12.27;;;4.70;99.90;;;;;;5099277;28;20178;-83
2022/12/19 00:40:40;;;;;;;25.10;11.77;;;4.70;99.90;;;;;;5098432;28;20227;-83
2022/12/19 00:44:21;;;;;;;21.30;11.50;;;4.90;99.90;;;;;;5098221;28;20170;-83
2022/12/19 00:47:18;;;;;;;20.90;11.77;;;4.90;99.90;;;;;;5099967;28;20446;-83
2022/12/19 00:49:51;;;;;;;18.07;11.13;;;4.90;99.90;;;;;;5097048;28;20527;-83
2022/12/19 00:52:26;;;;;;;23.03;11.57;;;4.90;99.90;;;;;;5097718;28;20205;-83
2022/12/19 00:55:03;;;;;;;21.37;12.23;;;4.90;99.90;;;;;;5098211;28;20225;-83
2022/12/19 00:57:47;;;;;;;21.73;11.77;;;5.00;99.90;;;;;;5099951;28;20210;-83
2022/12/19 01:00:48;;;;;;;20.87;11.80;;;5.10;99.90;;;;;;5097998;28;20201;-83
2022/12/19 01:03:47;;;;;;;19.80;11.77;;;5.10;99.90;;;;;;5099425;28;20213;-84
2022/12/19 01:06:41;;;;;;;21.30;11.70;;;5.10;99.90;;;;;;5100741;28;20461;-83
2022/12/19 01:22:48;;;;;;;18.00;10.73;;;5.40;99.90;;;;;;5096766;28;20202;-85
2022/12/19 01:25:46;;;;;;;16.17;9.83;;;5.40;99.90;;;;;;5095711;28;20232;-84
2022/12/19 01:28:21;;;;;;;18.03;9.67;;;5.40;99.90;;;;;;5099747;28;20249;-84
2022/12/19 01:31:07;;;;;;;13.93;9.90;;;5.50;99.90;;;;;;5095484;28;20205;-84
2022/12/19 01:43:30;;;;;;;16.23;10.87;;;5.70;99.90;;;;;;5098552;28;20191;-83
2022/12/19 01:46:15;;;;;;;15.80;10.33;;;5.70;99.90;;;;;;5081592;28;20213;-83
2022/12/19 01:49:08;;;;;;;16.20;10.97;;;5.80;99.90;;;;;;5098516;28;20194;-84
2022/12/19 01:58:05;;;;;;;15.43;9.50;;;5.90;99.90;;;;;;5096187;28;20182;-84
2022/12/19 02:01:01;;;;;;;14.40;10.03;;;5.90;99.90;;;;;;5095683;28;20206;-83
2022/12/19 02:09:23;;;;;;;13.80;9.97;;;6.00;99.90;;;;;;5096286;28;20195;-84
2022/12/19 02:15:19;;;;;;;15.20;10.30;;;6.10;99.90;;;;;;5098416;28;20212;-84
2022/12/19 02:22:06;;;;;;;13.53;8.80;;;6.20;99.90;;;;;;5097857;28;20194;-83
2022/12/19 02:28:36;;;;;;;11.57;7.63;;;6.20;99.90;;;;;;5097367;28;20194;-84
2022/12/19 02:41:55;;;;;;;15.93;10.50;;;6.30;99.90;;;;;;5097931;28;20197;-84
2022/12/19 02:45:13;;;;;;;14.23;10.03;;;6.30;99.90;;;;;;5098446;28;20178;-83
2022/12/19 02:47:51;;;;;;;15.20;9.93;;;6.40;99.90;;;;;;5098579;28;20190;-84
2022/12/19 02:57:11;;;;;;;11.57;9.07;;;6.30;99.90;;;;;;5097646;28;20216;-84
2022/12/19 03:00:45;;;;;;;14.40;10.30;;;6.30;99.90;;;;;;5097484;28;20269;-83
2022/12/19 03:03:50;;;;;;;16.03;9.97;;;6.40;99.90;;;;;;5098131;28;20197;-84
2022/12/19 03:10:39;;;;;;;13.33;9.57;;;6.40;99.90;;;;;;5097075;28;20185;-83
2022/12/19 03:13:33;;;;;;;11.97;9.70;;;6.50;99.90;;;;;;5097526;28;20228;-84
2022/12/19 03:16:58;;;;;;;13.33;10.10;;;6.50;99.90;;;;;;5098256;28;20237;-85
2022/12/19 03:29:37;;;;;;;12.83;9.63;;;6.60;99.90;;;;;;5096811;28;20213;-83
2022/12/19 03:32:58;;;;;;;13.70;9.77;;;6.60;99.90;;;;;;5098750;28;20198;-83
2022/12/19 03:39:10;;;;;;;14.70;10.10;;;6.60;99.90;;;;;;5097268;28;20204;-83
2022/12/19 03:48:34;;;;;;;16.53;9.87;;;6.70;99.90;;;;;;5074307;28;20183;-84
2022/12/19 03:51:36;;;;;;;12.50;9.17;;;6.70;99.90;;;;;;5077742;28;20190;-82
2022/12/19 03:54:26;;;;;;;13.43;9.20;;;6.80;99.90;;;;;;5096170;28;20197;-84
2022/12/19 03:57:18;;;;;;;11.33;8.77;;;6.80;99.90;;;;;;5096915;28;20202;-84
2022/12/19 04:03:12;;;;;;;12.53;8.70;;;6.80;99.90;;;;;;5096474;28;20225;-84
2022/12/19 04:05:50;;;;;;;13.17;9.33;;;6.80;99.90;;;;;;5096238;28;20194;-84
2022/12/19 04:08:36;;;;;;;11.60;8.87;;;6.90;99.90;;;;;;5094498;28;20206;-83
2022/12/19 04:14:15;;;;;;;10.60;8.57;;;7.00;99.90;;;;;;5080839;28;20222;-82
2022/12/19 04:27:09;;;;;;;10.03;7.03;;;7.20;99.90;;;;;;5081727;28;20217;-83
2022/12/19 04:30:40;;;;;;;10.10;8.03;;;7.30;99.90;;;;;;5064445;28;20282;-83
2022/12/19 04:33:59;;;;;;;10.03;8.60;;;7.40;99.90;;;;;;5081626;28;20274;-85
2022/12/19 04:40:44;;;;;;;11.50;7.70;;;7.40;99.90;;;;;;5081385;28;20198;-84
2022/12/19 08:03:30;;;;;;;6.67;5.67;;;8.10;99.90;;;;;;5079850;28;20205;-94
2022/12/19 08:25:12;;;;;;;6.67;5.93;;;8.30;99.90;;;;;;5087658;28;20432;-86
2022/12/19 09:19:24;;;;;;;5.77;5.13;;;8.70;99.90;;;;;;5059722;28;20280;-85
2022/12/19 09:21:54;;;;;;;5.37;4.47;;;8.70;99.90;;;;;;5047994;28;20191;-84
2022/12/19 09:27:40;;;;;;;5.70;4.07;;;8.70;99.90;;;;;;5030836;28;20210;-83
2022/12/19 09:30:22;;;;;;;7.60;4.60;;;8.70;99.90;;;;;;5038260;28;20255;-85
2022/12/19 09:41:15;;;;;;;6.77;4.53;;;8.60;99.90;;;;;;5113447;22;20232;-92
2022/12/19 09:43:57;;;;;;;6.13;5.13;;;8.70;99.90;;;;;;5099575;28;20283;-94
2022/12/19 09:46:31;;;;;;;7.00;4.67;;;8.60;99.90;;;;;;5106647;28;20640;-93
2022/12/19 09:51:52;;;;;;;5.00;4.50;;;8.60;99.90;;;;;;5089406;28;20685;-94
2022/12/19 09:54:26;;;;;;;7.28;6.55;;;8.50;99.90;;;;;;5095916;28;20432;-94
2022/12/19 10:16:03;;;;;;;5.90;5.30;;;8.60;99.90;;;;;;5096903;28;20225;-95
2022/12/19 10:44:44;;;;;;;9.30;4.20;;;9.60;99.90;;;;;;5076125;28;20221;-93
2022/12/19 10:47:17;;;;;;;4.13;3.80;;;9.60;99.90;;;;;;5082045;28;20189;-94
2022/12/19 10:49:45;;;;;;;4.87;4.33;;;9.80;99.90;;;;;;5056551;28;20191;-95
2022/12/19 10:52:14;;;;;;;5.43;4.27;;;9.80;99.90;;;;;;5071674;28;20203;-94
2022/12/19 10:54:43;;;;;;;4.00;3.60;;;9.80;99.90;;;;;;5092588;28;20205;-96
2022/12/19 10:57:24;;;;;;;4.10;3.80;;;9.90;99.90;;;;;;5094014;28;20218;-95
2022/12/19 11:00:02;;;;;;;4.97;3.83;;;10.00;99.90;;;;;;5084413;28;20202;-95
2022/12/19 11:02:44;;;;;;;4.67;3.73;;;10.00;99.90;;;;;;5082181;28;20186;-94
2022/12/19 11:05:25;;;;;;;4.60;3.63;;;10.00;99.90;;;;;;5077683;28;20232;-94
2022/12/19 11:08:02;;;;;;;3.73;3.30;;;10.10;99.90;;;;;;5083223;28;20230;-94
2022/12/19 11:10:36;;;;;;;3.40;3.10;;;10.20;99.90;;;;;;5037945;28;20190;-95
2022/12/19 11:13:20;;;;;;;3.60;3.30;;;10.20;99.90;;;;;;5048288;28;20207;-95
2022/12/19 11:15:50;;;;;;;4.20;3.07;;;10.30;99.90;;;;;;5053314;28;20226;-95
2022/12/19 11:18:25;;;;;;;4.83;2.90;;;10.30;99.90;;;;;;5056392;28;20219;-93
2022/12/19 11:21:00;;;;;;;4.53;3.67;;;10.50;99.90;;;;;;5063486;28;20421;-93
2022/12/19 11:23:29;;;;;;;3.10;2.80;;;10.70;99.90;;;;;;5090311;28;20457;-94
2022/12/19 11:25:58;;;;;;;4.53;2.83;;;10.60;99.90;;;;;;5084833;28;20195;-94
2022/12/19 11:31:50;;;;;;;3.23;2.43;;;10.70;99.90;;;;;;5091336;28;20239;-95
2022/12/19 11:34:36;;;;;;;3.80;2.80;;;10.70;99.90;;;;;;5096932;28;20208;-94
2022/12/19 11:37:20;;;;;;;3.83;2.30;;;10.70;99.90;;;;;;5085330;28;20221;-95
2022/12/19 11:39:51;;;;;;;3.67;2.20;;;10.80;99.90;;;;;;5070018;28;20210;-94
2022/12/19 11:42:26;;;;;;;3.33;2.60;;;10.80;99.90;;;;;;5061952;28;20187;-93
2022/12/19 11:45:03;;;;;;;2.47;2.27;;;11.00;99.90;;;;;;5087230;28;20238;-94
2022/12/19 11:47:45;;;;;;;3.07;2.20;;;10.80;99.90;;;;;;5085747;28;20209;-92
2022/12/19 11:50:24;;;;;;;3.73;2.00;;;10.80;99.90;;;;;;5069176;28;20220;-93
2022/12/19 11:53:21;;;;;;;3.17;1.90;;;10.90;99.90;;;;;;5055242;28;20207;-95
2022/12/19 11:56:11;;;;;;;2.23;2.03;;;10.90;99.90;;;;;;5072888;28;20282;-94
2022/12/19 12:07:58;;;;;;;3.97;2.17;;;11.00;99.90;;;;;;5062140;28;20203;-94
2022/12/19 12:13:38;;;;;;;2.50;2.03;;;11.00;99.90;;;;;;5072682;28;20212;-93
2022/12/19 12:16:10;;;;;;;2.27;2.10;;;11.00;99.90;;;;;;5061589;28;20262;-95
2022/12/19 12:19:03;;;;;;;2.90;1.93;;;11.00;99.90;;;;;;5040581;28;20232;-93
2022/12/19 12:21:44;;;;;;;2.70;2.27;;;11.00;99.90;;;;;;5050938;28;20211;-94
2022/12/19 12:24:40;;;;;;;3.03;2.07;;;11.00;99.90;;;;;;5049283;28;20295;-93
2022/12/19 12:27:26;;;;;;;2.75;2.50;;;11.00;99.90;;;;;;5065683;28;20443;-93
2022/12/19 12:33:22;;;;;;;3.07;2.00;;;11.00;99.90;;;;;;5064954;28;20223;-92
2022/12/19 12:35:54;;;;;;;3.00;2.17;;;11.00;99.90;;;;;;5052743;28;20227;-95
2022/12/19 12:38:46;;;;;;;3.83;2.23;;;11.00;99.90;;;;;;5050916;28;20247;-92
2022/12/19 12:42:07;;;;;;;2.93;2.13;;;11.20;99.90;;;;;;5047663;28;20231;-93
2022/12/19 13:05:53;;;;;;;2.70;2.23;;;11.00;99.90;;;;;;5093925;28;20206;-96
2022/12/19 13:08:34;;;;;;;3.73;2.23;;;11.00;99.90;;;;;;5085313;28;20238;-92
2022/12/19 13:12:58;;;;;;;4.97;2.07;;;11.00;99.90;;;;;;5052271;28;20210;-92
2022/12/19 13:14:06;;;;;;;2.00;1.83;;;11.00;99.90;;;;;;5050149;28;20200;-93
2022/12/19 13:17:24;;;;;;;2.07;1.97;;;11.00;99.90;;;;;;5045423;28;20285;-93
2022/12/19 13:20:19;;;;;;;2.90;2.30;;;11.00;99.90;;;;;;5037912;28;20220;-94
2022/12/19 13:23:33;;;;;;;2.30;2.10;;;11.00;99.90;;;;;;5029645;28;20233;-92
2022/12/19 13:26:37;;;;;;;2.90;2.27;;;11.00;99.90;;;;;;5032485;28;20253;-91
2022/12/19 13:29:52;;;;;;;2.10;2.00;;;11.00;99.90;;;;;;5079717;23;20230;-91
2022/12/19 13:32:24;;;;;;;2.90;1.90;;;11.10;99.90;;;;;;5092265;28;20198;-94
2022/12/19 13:34:59;;;;;;;3.13;2.23;;;11.10;99.90;;;;;;5102583;28;20204;-92
2022/12/19 13:37:39;;;;;;;2.03;1.80;;;11.10;99.90;;;;;;5098732;28;20249;-95
2022/12/19 13:40:14;;;;;;;4.33;1.97;;;11.10;99.90;;;;;;5072176;28;20336;-92
2022/12/19 13:45:54;;;;;;;2.73;2.00;;;11.20;99.90;;;;;;5059120;28;20194;-93
2022/12/19 13:48:29;;;;;;;2.13;1.93;;;11.20;99.90;;;;;;5078635;28;20250;-94
2022/12/19 13:50:57;;;;;;;2.50;2.23;;;11.30;99.90;;;;;;5074020;28;20759;-93
2022/12/19 13:53:46;;;;;;;2.03;1.93;;;11.30;99.90;;;;;;5077256;28;20211;-94
2022/12/19 13:56:38;;;;;;;2.47;2.27;;;11.30;99.90;;;;;;5074861;28;20222;-92
2022/12/19 13:59:11;;;;;;;3.23;1.90;;;11.40;99.90;;;;;;5083756;28;20214;-92
2022/12/19 14:01:55;;;;;;;2.30;2.07;;;11.30;99.90;;;;;;5082894;28;20204;-93
2022/12/19 14:04:34;;;;;;;2.93;2.23;;;11.30;99.90;;;;;;5063480;28;20194;-95
2022/12/19 14:07:06;;;;;;;2.83;2.07;;;11.30;99.90;;;;;;5068562;28;20198;-93
2022/12/19 14:09:40;;;;;;;2.20;2.00;;;11.30;99.90;;;;;;5072346;28;20286;-96
2022/12/19 14:15:12;;;;;;;3.00;2.10;;;11.30;99.90;;;;;;5087395;28;20264;-93
2022/12/19 14:15:28;;;;;;;2.10;2.00;;;11.30;99.90;;;;;;5090170;28;20201;-94
2022/12/19 14:17:56;;;;;;;2.77;2.00;;;11.20;99.90;;;;;;5085752;28;20803;-93
2022/12/19 14:20:30;;;;;;;2.87;2.00;;;11.20;99.90;;;;;;5070833;28;20697;-93
2022/12/19 14:22:59;;;;;;;2.33;2.13;;;11.20;99.90;;;;;;5088137;28;20198;-96
2022/12/19 14:25:35;;;;;;;2.03;1.90;;;11.20;99.90;;;;;;5075474;28;20280;-94
2022/12/19 14:28:06;;;;;;;2.53;2.13;;;11.10;99.90;;;;;;5083997;28;20324;-95
2022/12/19 14:30:43;;;;;;;4.23;2.00;;;11.30;99.90;;;;;;5084336;28;20203;-96
2022/12/19 14:33:16;;;;;;;2.53;2.27;;;11.20;99.90;;;;;;5062768;28;20671;-96
2022/12/19 14:35:50;;;;;;;2.43;1.80;;;11.30;99.90;;;;;;5085276;28;20206;-95
2022/12/19 14:38:24;;;;;;;2.20;2.00;;;11.10;99.90;;;;;;5082614;28;20227;-95
2022/12/19 14:40:57;;;;;;;3.10;2.30;;;11.20;99.90;;;;;;5066933;28;20228;-94
2022/12/19 14:43:39;;;;;;;2.90;2.17;;;11.10;99.90;;;;;;5080582;28;20301;-94
2022/12/19 14:46:26;;;;;;;2.53;2.33;;;11.20;99.90;;;;;;5079955;28;20236;-96
2022/12/19 14:48:59;;;;;;;2.33;2.13;;;11.20;99.90;;;;;;5068489;28;20644;-95
2022/12/19 14:51:28;;;;;;;3.03;2.27;;;11.30;99.90;;;;;;5087666;28;20234;-93
2022/12/19 14:54:18;;;;;;;4.00;2.57;;;11.20;99.90;;;;;;5086488;28;20200;-95
2022/12/19 14:56:48;;;;;;;4.10;2.30;;;11.20;99.90;;;;;;5084787;28;20750;-96
2022/12/19 14:59:32;;;;;;;2.90;2.67;;;11.20;99.90;;;;;;5091677;28;20237;-94
2022/12/19 15:02:10;;;;;;;3.03;2.40;;;11.20;99.90;;;;;;5088778;28;20216;-94
2022/12/19 15:04:42;;;;;;;4.33;2.50;;;11.10;99.90;;;;;;5088807;28;20211;-95
2022/12/19 15:07:16;;;;;;;2.23;2.00;;;11.20;99.90;;;;;;5080875;28;20198;-94
2022/12/19 15:09:57;;;;;;;2.57;2.37;;;11.20;99.90;;;;;;5079048;28;20206;-94
2022/12/19 15:15:21;;;;;;;2.27;2.07;;;11.10;99.90;;;;;;5071766;28;20202;-93
2022/12/19 15:17:57;;;;;;;2.80;2.60;;;11.10;99.90;;;;;;5065923;28;21284;-93
2022/12/19 15:20:27;;;;;;;3.80;2.50;;;11.20;99.90;;;;;;5064593;28;20212;-95
2022/12/19 15:23:10;;;;;;;2.07;1.87;;;11.20;99.90;;;;;;5068278;28;20211;-94
2022/12/19 15:25:42;;;;;;;3.10;2.40;;;11.30;99.90;;;;;;5046666;28;20205;-94
2022/12/19 15:28:16;;;;;;;2.60;2.40;;;11.30;99.90;;;;;;5060992;28;20243;-94
2022/12/19 15:30:50;;;;;;;3.83;2.50;;;11.20;99.90;;;;;;5057003;28;20770;-95
2022/12/19 15:33:27;;;;;;;2.93;2.67;;;11.20;99.90;;;;;;5054547;28;20198;-95
2022/12/19 15:36:00;;;;;;;4.25;2.95;;;11.00;99.90;;;;;;5040342;28;20434;-94
2022/12/19 15:38:27;;;;;;;5.27;2.73;;;11.00;99.90;;;;;;5055022;28;20301;-94
2022/12/19 15:40:57;;;;;;;2.83;2.60;;;10.90;99.90;;;;;;5067005;28;20294;-94
2022/12/19 15:43:24;;;;;;;3.80;2.53;;;11.00;99.90;;;;;;5060789;28;20296;-93
2022/12/19 15:45:57;;;;;;;4.83;2.63;;;11.00;99.90;;;;;;5075723;28;20289;-94
2022/12/19 15:48:28;;;;;;;3.67;2.73;;;11.10;99.90;;;;;;5072248;28;20233;-94
2022/12/19 15:51:03;;;;;;;3.00;2.70;;;11.00;99.90;;;;;;5067334;28;20205;-93
2022/12/19 15:53:36;;;;;;;5.20;2.60;;;10.90;99.90;;;;;;5058530;28;20565;-94
2022/12/19 15:56:08;;;;;;;3.60;3.08;;;10.80;99.90;;;;;;5053151;28;20430;-93
2022/12/19 15:58:36;;;;;;;4.13;3.00;;;11.00;99.90;;;;;;5056849;28;20224;-95
2022/12/19 16:01:04;;;;;;;4.10;2.73;;;11.00;99.90;;;;;;5050885;28;20298;-93
2022/12/19 16:03:34;;;;;;;3.80;2.50;;;11.00;99.90;;;;;;5060817;28;20291;-93
2022/12/19 16:06:12;;;;;;;6.37;3.17;;;11.00;99.90;;;;;;5057459;28;20241;-92
2022/12/19 16:08:42;;;;;;;5.30;2.70;;;11.00;99.90;;;;;;5052328;28;20231;-94
2022/12/19 16:11:19;;;;;;;3.37;2.70;;;10.90;99.90;;;;;;5059002;28;20306;-94
2022/12/19 16:13:53;;;;;;;4.27;2.83;;;10.80;99.90;;;;;;5061502;28;20707;-92
2022/12/19 16:16:24;;;;;;;2.87;2.40;;;10.80;99.90;;;;;;5059263;28;20207;-91
2022/12/19 16:18:58;;;;;;;2.83;2.53;;;10.80;99.90;;;;;;5064463;28;20312;-90
2022/12/19 16:21:28;;;;;;;5.30;2.70;;;10.70;99.90;;;;;;5070520;28;20206;-92
2022/12/19 16:23:56;;;;;;;3.70;2.47;;;10.70;99.90;;;;;;5060253;28;20204;-93
2022/12/19 16:26:33;;;;;;;4.67;2.53;;;10.70;99.90;;;;;;5065779;28;20668;-93
2022/12/19 16:29:19;;;;;;;5.27;2.77;;;10.60;99.90;;;;;;5058789;28;20241;-93
2022/12/19 16:32:04;;;;;;;4.00;2.37;;;10.60;99.90;;;;;;5041491;28;20210;-93
2022/12/19 16:34:45;;;;;;;6.80;2.70;;;10.60;99.90;;;;;;5073776;28;20674;-94
2022/12/19 16:37:16;;;;;;;3.10;2.63;;;10.60;99.90;;;;;;5046750;28;20296;-93
2022/12/19 16:39:46;;;;;;;3.00;2.70;;;10.60;99.90;;;;;;5063971;28;20206;-93
2022/12/19 16:42:31;;;;;;;5.00;3.30;;;10.60;99.90;;;;;;5074690;28;20198;-94
2022/12/19 16:45:04;;;;;;;6.13;3.20;;;10.60;99.90;;;;;;5065435;28;20238;-92
2022/12/19 16:47:34;;;;;;;3.60;2.60;;;10.60;99.90;;;;;;5048832;28;20282;-94
2022/12/19 16:50:13;;;;;;;3.33;2.63;;;10.70;99.90;;;;;;5071700;28;20836;-94
2022/12/19 16:52:40;;;;;;;4.13;2.67;;;10.70;99.90;;;;;;5071367;28;20633;-95
2022/12/19 16:55:07;;;;;;;3.03;2.47;;;10.80;99.90;;;;;;5065403;28;20666;-93
2022/12/19 16:57:35;;;;;;;4.07;2.90;;;10.70;99.90;;;;;;5083384;28;20507;-93
2022/12/19 17:00:13;;;;;;;4.47;2.80;;;10.80;99.90;;;;;;5081501;28;20245;-95
2022/12/19 17:06:12;;;;;;;4.00;2.90;;;10.80;99.90;;;;;;5088618;28;20199;-94
2022/12/19 17:09:21;;;;;;;5.00;3.00;;;10.80;99.90;;;;;;5084371;28;20222;-94
2022/12/19 17:12:49;;;;;;;4.53;2.70;;;10.80;99.90;;;;;;5065649;28;20258;-93
2022/12/19 17:15:28;;;;;;;3.67;3.17;;;10.70;99.90;;;;;;5071858;28;20213;-94
2022/12/19 17:17:59;;;;;;;3.17;2.83;;;10.70;99.90;;;;;;5062241;28;20241;-94
2022/12/19 17:20:30;;;;;;;6.13;3.30;;;10.70;99.90;;;;;;5064799;28;20218;-92
2022/12/19 17:22:58;;;;;;;3.03;2.73;;;10.60;99.90;;;;;;5065240;28;20696;-94
2022/12/19 17:25:30;;;;;;;3.40;3.10;;;10.70;99.90;;;;;;5066486;28;20213;-93
2022/12/19 17:27:57;;;;;;;3.70;3.00;;;10.70;99.90;;;;;;5056905;28;20230;-93
2022/12/19 17:30:25;;;;;;;3.50;2.97;;;10.70;99.90;;;;;;5056324;28;20708;-96
2022/12/19 17:32:55;;;;;;;3.00;2.70;;;10.80;99.90;;;;;;5056656;28;20203;-95
2022/12/19 17:35:25;;;;;;;3.50;3.20;;;10.70;99.90;;;;;;5056556;28;20206;-93
2022/12/19 17:37:54;;;;;;;4.03;3.20;;;10.70;99.90;;;;;;5056038;28;20251;-93
2022/12/19 17:40:24;;;;;;;6.03;3.10;;;10.70;99.90;;;;;;5057843;28;20207;-93
2022/12/19 17:42:52;;;;;;;3.30;2.60;;;10.70;99.90;;;;;;5057646;28;20214;-95
2022/12/19 17:45:22;;;;;;;3.40;3.03;;;10.70;99.90;;;;;;5059545;28;20225;-93
2022/12/19 17:47:50;;;;;;;3.67;3.00;;;10.70;99.90;;;;;;5057495;28;20242;-94
2022/12/19 17:50:23;;;;;;;6.03;3.03;;;10.70;99.90;;;;;;5057229;28;20207;-94
2022/12/19 17:52:51;;;;;;;4.20;2.70;;;10.60;99.90;;;;;;5056815;28;20226;-93
2022/12/19 17:55:21;;;;;;;3.50;3.20;;;10.60;99.90;;;;;;5056713;28;20636;-95
2022/12/19 17:57:50;;;;;;;6.13;3.33;;;10.60;99.90;;;;;;5058971;28;20253;-93
2022/12/19 18:00:20;;;;;;;3.00;2.73;;;10.60;99.90;;;;;;5061535;28;20606;-91
2022/12/19 18:02:49;;;;;;;5.27;2.93;;;10.60;99.90;;;;;;5057805;28;20278;-92
2022/12/19 18:05:20;;;;;;;3.50;2.90;;;10.60;99.90;;;;;;5056537;28;20207;-91
2022/12/19 18:10:51;;;;;;;7.97;3.30;;;10.50;99.90;;;;;;5071029;28;20200;-91
2022/12/19 18:13:32;;;;;;;5.13;3.37;;;10.50;99.90;;;;;;5074205;28;20279;-90
2022/12/19 18:16:19;;;;;;;3.37;3.07;;;10.50;99.90;;;;;;5072732;28;20166;-92
2022/12/19 18:18:47;;;;;;;3.77;2.83;;;10.50;99.90;;;;;;5064556;28;20230;-92
2022/12/19 18:24:13;;;;;;;5.93;3.37;;;10.40;99.90;;;;;;5069250;28;20283;-92
2022/12/19 18:26:44;;;;;;;4.07;3.28;;;10.30;99.90;;;;;;5072162;28;20459;-90
2022/12/19 18:29:21;;;;;;;4.87;2.87;;;10.20;99.90;;;;;;5071670;28;20238;-92
2022/12/19 18:34:45;;;;;;;3.97;3.00;;;10.30;99.90;;;;;;5056968;28;20208;-91
2022/12/19 18:40:20;;;;;;;6.63;3.00;;;10.20;99.90;;;;;;5108230;22;20279;-92
2022/12/19 18:42:48;;;;;;;4.53;3.13;;;10.20;99.90;;;;;;5067229;28;20210;-92
2022/12/19 18:45:45;;;;;;;3.33;2.60;;;10.20;99.90;;;;;;5071892;28;20213;-91
2022/12/19 18:48:39;;;;;;;3.50;3.00;;;10.30;99.90;;;;;;5083606;23;20225;-91
2022/12/19 18:51:09;;;;;;;4.07;3.17;;;10.20;99.90;;;;;;5090921;28;20232;-90
2022/12/19 18:53:37;;;;;;;4.33;2.83;;;10.30;99.90;;;;;;5084150;28;20190;-90
2022/12/19 18:56:26;;;;;;;5.80;2.80;;;10.20;99.90;;;;;;5083942;28;20205;-90
2022/12/19 18:58:53;;;;;;;7.30;4.67;;;10.10;99.90;;;;;;5068636;28;20233;-92
2022/12/19 19:01:22;;;;;;;3.43;3.13;;;10.10;99.90;;;;;;5044124;28;20199;-91
2022/12/19 19:03:55;;;;;;;5.00;3.03;;;10.20;99.90;;;;;;5048057;28;20195;-92
2022/12/19 19:06:25;;;;;;;5.40;2.60;;;10.20;99.90;;;;;;5050981;28;20199;-91
2022/12/19 19:08:52;;;;;;;3.73;3.17;;;10.20;99.90;;;;;;5057000;28;20280;-91
2022/12/19 19:11:22;;;;;;;4.10;3.20;;;10.10;99.90;;;;;;5067236;28;20198;-90
2022/12/19 19:13:57;;;;;;;3.80;3.50;;;10.10;99.90;;;;;;5074693;28;20487;-91
2022/12/19 19:16:29;;;;;;;3.50;3.20;;;10.00;99.90;;;;;;5055259;28;20292;-91
2022/12/19 19:18:57;;;;;;;5.07;3.20;;;10.10;99.90;;;;;;5054008;28;20241;-91
2022/12/19 19:21:31;;;;;;;4.00;3.23;;;10.10;99.90;;;;;;5059984;28;20266;-92
2022/12/19 19:24:01;;;;;;;4.43;3.20;;;10.00;99.90;;;;;;5053827;28;20236;-93
2022/12/19 19:26:35;;;;;;;4.73;3.03;;;10.10;99.90;;;;;;5071962;28;20230;-92
2022/12/19 19:29:06;;;;;;;3.30;3.00;;;10.10;99.90;;;;;;5039375;28;20227;-93
2022/12/19 19:31:39;;;;;;;3.70;2.70;;;10.20;99.90;;;;;;5037997;28;20582;-92
2022/12/19 19:34:28;;;;;;;4.90;2.90;;;10.20;99.90;;;;;;5046421;28;20217;-93
2022/12/19 19:37:13;;;;;;;5.43;3.30;;;10.20;99.90;;;;;;5059127;28;20195;-92
2022/12/19 19:39:48;;;;;;;5.17;3.13;;;10.20;99.90;;;;;;5046682;28;20768;-94
2022/12/19 19:42:17;;;;;;;5.23;3.40;;;10.20;99.90;;;;;;5062536;28;20618;-91
2022/12/19 19:44:45;;;;;;;3.53;3.22;;;10.20;99.90;;;;;;5066565;28;20430;-92
2022/12/19 19:47:14;;;;;;;3.90;3.50;;;10.30;99.90;;;;;;5077383;28;20212;-91
2022/12/19 19:49:41;;;;;;;3.17;2.90;;;10.30;99.90;;;;;;5081433;28;20583;-93
2022/12/19 19:52:08;;;;;;;3.20;2.40;;;10.40;99.90;;;;;;5070521;28;20231;-92
2022/12/19 19:54:36;;;;;;;4.53;3.17;;;10.30;99.90;;;;;;5049472;28;20561;-92
2022/12/19 19:57:03;;;;;;;4.13;3.72;;;10.40;99.90;;;;;;5047230;28;20882;-93
2022/12/19 19:59:30;;;;;;;3.10;2.90;;;10.50;99.90;;;;;;5058275;28;20221;-93
2022/12/19 20:01:57;;;;;;;7.17;3.43;;;10.40;99.90;;;;;;5081402;28;20296;-94
2022/12/19 20:04:27;;;;;;;3.23;2.83;;;10.30;99.90;;;;;;5060916;28;20727;-93
2022/12/19 20:06:54;;;;;;;5.93;3.13;;;10.40;99.90;;;;;;5073603;28;20693;-93
2022/12/19 20:09:21;;;;;;;6.05;5.18;;;10.50;99.90;;;;;;5076666;28;20495;-92
2022/12/19 20:11:48;;;;;;;3.43;3.10;;;10.60;99.90;;;;;;5064010;28;20302;-93
2022/12/19 20:14:16;;;;;;;3.83;2.80;;;10.50;99.90;;;;;;5069241;28;20218;-92
2022/12/19 20:16:43;;;;;;;5.03;3.00;;;10.50;99.90;;;;;;5059327;28;20266;-93
2022/12/19 20:19:10;;;;;;;4.70;3.43;;;10.50;99.90;;;;;;5058993;28;20338;-94
2022/12/19 20:21:43;;;;;;;3.23;2.93;;;10.60;99.90;;;;;;5066505;28;20244;-92
2022/12/19 20:24:11;;;;;;;5.03;2.87;;;10.60;99.90;;;;;;5049759;28;20210;-92
2022/12/19 20:26:44;;;;;;;2.70;2.50;;;10.60;99.90;;;;;;5074676;28;20222;-92
2022/12/19 20:29:12;;;;;;;2.73;2.50;;;10.70;99.90;;;;;;5058950;28;20289;-92
2022/12/19 20:31:40;;;;;;;4.87;2.47;;;10.60;99.90;;;;;;5075115;28;20255;-91
2022/12/19 20:34:09;;;;;;;6.90;3.00;;;10.70;99.90;;;;;;5068554;28;20430;-94
2022/12/19 20:36:36;;;;;;;3.73;2.60;;;10.70;99.90;;;;;;5059720;28;20293;-94
2022/12/19 20:39:05;;;;;;;3.40;2.60;;;10.70;99.90;;;;;;5052433;28;20239;-94
2022/12/19 20:41:33;;;;;;;2.57;2.37;;;10.70;99.90;;;;;;5080873;28;20209;-95
2022/12/19 20:44:00;;;;;;;3.47;2.70;;;10.70;99.90;;;;;;5074779;28;20224;-94
2022/12/19 20:46:28;;;;;;;3.72;2.78;;;10.80;99.90;;;;;;5071467;28;20459;-95
2022/12/19 20:48:55;;;;;;;4.43;2.47;;;10.80;99.90;;;;;;5068754;28;20238;-93
2022/12/19 20:51:22;;;;;;;2.83;2.60;;;10.90;99.90;;;;;;5066813;28;20298;-94
2022/12/19 20:53:52;;;;;;;3.43;2.73;;;10.90;99.90;;;;;;5063639;28;20207;-95
2022/12/19 20:56:24;;;;;;;4.17;2.43;;;10.80;99.90;;;;;;5063042;28;20207;-94
2022/12/19 20:58:57;;;;;;;3.70;2.33;;;10.80;99.90;;;;;;5082440;28;20270;-93
2022/12/19 21:01:29;;;;;;;2.70;2.50;;;10.90;99.90;;;;;;5095938;28;20221;-93
2022/12/19 21:04:19;;;;;;;3.47;2.50;;;10.80;99.90;;;;;;5089653;28;20671;-92
2022/12/19 21:07:16;;;;;;;2.67;2.43;;;10.80;99.90;;;;;;5064358;28;20207;-92
2022/12/19 21:09:48;;;;;;;3.57;2.50;;;10.80;99.90;;;;;;5049802;28;20208;-94
2022/12/19 21:12:26;;;;;;;4.27;2.70;;;10.80;99.90;;;;;;5052294;28;20214;-94
2022/12/19 21:15:00;;;;;;;3.13;2.70;;;10.80;99.90;;;;;;5067668;28;20237;-94
2022/12/19 21:17:33;;;;;;;3.27;2.70;;;10.90;99.90;;;;;;5052399;28;20210;-94
2022/12/19 21:20:01;;;;;;;3.67;2.67;;;10.80;99.90;;;;;;5055007;28;20238;-92
2022/12/19 21:22:30;;;;;;;2.60;2.40;;;10.80;99.90;;;;;;5049579;28;20710;-95
2022/12/19 21:25:06;;;;;;;4.97;3.20;;;10.90;99.90;;;;;;5061139;28;20216;-94
2022/12/19 21:27:39;;;;;;;4.53;2.87;;;10.80;99.90;;;;;;5082490;28;20206;-95
2022/12/19 21:30:21;;;;;;;2.77;2.50;;;11.00;99.90;;;;;;5059424;28;20218;-94
2022/12/19 21:32:52;;;;;;;2.83;2.57;;;10.90;99.90;;;;;;5071492;28;20233;-94
2022/12/19 21:35:22;;;;;;;3.27;2.63;;;10.90;99.90;;;;;;5062154;28;20247;-95
2022/12/19 21:37:53;;;;;;;3.03;2.50;;;11.10;99.90;;;;;;5056959;28;20301;-93
2022/12/19 21:40:22;;;;;;;2.87;2.57;;;11.00;99.90;;;;;;5088710;28;20279;-94
2022/12/19 21:43:03;;;;;;;3.30;2.37;;;11.10;99.90;;;;;;5082268;28;20271;-94
2022/12/19 21:45:33;;;;;;;4.50;2.67;;;11.10;99.90;;;;;;5062652;28;20211;-93
2022/12/19 21:48:15;;;;;;;2.20;2.00;;;11.20;99.90;;;;;;5068419;28;20303;-92
2022/12/19 21:51:28;;;;;;;4.93;2.50;;;11.30;99.90;;;;;;5051452;28;20219;-93
2022/12/19 21:53:59;;;;;;;2.40;2.20;;;11.30;99.90;;;;;;5063554;28;20208;-92
2022/12/19 21:56:33;;;;;;;5.03;2.40;;;11.40;99.90;;;;;;5068142;28;20548;-93
2022/12/19 21:59:20;;;;;;;2.50;2.20;;;11.40;99.90;;;;;;5069212;28;20243;-94
2022/12/19 22:01:49;;;;;;;3.90;2.37;;;11.30;99.90;;;;;;5061658;28;20276;-93
2022/12/19 22:04:27;;;;;;;2.87;2.23;;;11.40;99.90;;;;;;5056180;28;20208;-94
2022/12/19 22:06:57;;;;;;;3.00;2.63;;;11.40;99.90;;;;;;5071547;28;20227;-93
2022/12/19 22:09:26;;;;;;;4.57;2.33;;;11.50;99.90;;;;;;5074742;28;20237;-95
2022/12/19 22:12:03;;;;;;;4.80;2.10;;;11.50;99.90;;;;;;5089077;28;20199;-94
2022/12/19 22:14:35;;;;;;;2.57;2.37;;;11.40;99.90;;;;;;5080247;28;20204;-94